createdAt,value
2023-05-30T00:00:02.630Z,43.34
2023-05-30T00:02:30.658Z,43.29
2023-05-30T00:04:58.838Z,43.24
2023-05-30T00:07:26.776Z,43.19
2023-05-30T00:09:54.699Z,43.21
2023-05-30T00:12:24.687Z,43.23
2023-05-30T00:14:52.633Z,43.24
2023-05-30T00:17:21.653Z,43.35
2023-05-30T00:19:49.734Z,43.27
2023-05-30T00:22:20.367Z,43.33
2023-05-30T00:24:50.533Z,43.23
2023-05-30T00:27:18.789Z,43.25
2023-05-30T00:29:49.286Z,43.28
2023-05-30T00:32:17.233Z,43.13
2023-05-30T00:34:45.326Z,43.15
2023-05-30T00:37:13.259Z,43.05
2023-05-30T00:39:41.290Z,43.21
2023-05-30T00:42:09.575Z,43.03
2023-05-30T00:44:37.612Z,43.03
2023-05-30T00:47:07.736Z,43.07
2023-05-30T00:49:36.190Z,43.20
2023-05-30T00:52:04.463Z,43.01
2023-05-30T00:54:33.933Z,43.11
2023-05-30T00:57:02.463Z,42.99
2023-05-30T00:59:33.302Z,43.12
2023-05-30T01:02:01.465Z,42.86
2023-05-30T01:04:30.927Z,42.97
2023-05-30T01:06:58.965Z,43.03
2023-05-30T01:09:30.677Z,42.97
2023-05-30T01:12:07.989Z,43.00
2023-05-30T01:14:44.769Z,43.05
2023-05-30T01:17:18.332Z,43.50
2023-05-30T01:20:08.887Z,43.81
2023-05-30T01:22:43.946Z,43.80
2023-05-30T01:25:25.070Z,43.93
2023-05-30T01:28:11.182Z,44.10
2023-05-30T01:30:41.225Z,44.36
2023-05-30T01:33:12.784Z,44.46
2023-05-30T01:35:42.943Z,44.58
2023-05-30T01:38:10.938Z,44.72
2023-05-30T01:40:40.102Z,44.72
2023-05-30T01:43:16.852Z,44.73
2023-05-30T01:45:52.486Z,44.79
2023-05-30T01:48:30.580Z,44.85
2023-05-30T01:51:01.707Z,44.78
2023-05-30T01:53:38.279Z,44.85
2023-05-30T01:56:09.504Z,44.73
2023-05-30T01:58:39.276Z,44.68
2023-05-30T02:01:10.138Z,44.65
2023-05-30T02:03:38.282Z,44.60
2023-05-30T02:06:06.987Z,44.55
2023-05-30T02:08:35.034Z,44.56
2023-05-30T02:11:02.992Z,44.61
2023-05-30T02:13:31.227Z,44.61
2023-05-30T02:16:00.584Z,44.55
2023-05-30T02:18:28.737Z,44.54
2023-05-30T02:20:57.170Z,44.60
2023-05-30T02:23:25.465Z,44.38
2023-05-30T02:25:53.414Z,44.44
2023-05-30T02:28:21.363Z,44.42
2023-05-30T02:30:49.516Z,44.38
2023-05-30T02:33:18.822Z,44.25
2023-05-30T02:35:46.925Z,44.19
2023-05-30T02:38:14.931Z,44.17
2023-05-30T02:40:45.679Z,44.14
2023-05-30T02:43:20.419Z,44.21
2023-05-30T02:45:49.256Z,44.29
2023-05-30T02:48:18.641Z,44.29
2023-05-30T02:50:46.673Z,44.25
2023-05-30T02:53:14.998Z,44.06
2023-05-30T02:55:43.923Z,44.24
2023-05-30T02:58:14.577Z,44.12
2023-05-30T03:00:42.623Z,44.07
2023-05-30T03:03:11.035Z,44.18
2023-05-30T03:05:40.465Z,44.25
2023-05-30T03:08:21.829Z,44.08
2023-05-30T03:10:53.830Z,44.10
2023-05-30T03:13:22.396Z,43.99
2023-05-30T03:15:50.616Z,44.01
2023-05-30T03:18:18.552Z,43.90
2023-05-30T03:20:48.383Z,43.88
2023-05-30T03:23:16.530Z,43.92
2023-05-30T03:25:44.498Z,43.98
2023-05-30T03:28:12.452Z,43.80
2023-05-30T03:30:40.452Z,43.76
2023-05-30T03:33:08.492Z,43.91
2023-05-30T03:35:36.728Z,43.82
2023-05-30T03:38:06.253Z,43.70
2023-05-30T03:40:34.323Z,43.92
2023-05-30T03:43:02.273Z,43.84
2023-05-30T03:45:30.271Z,43.63
2023-05-30T03:47:58.294Z,43.73
2023-05-30T03:50:26.321Z,43.70
2023-05-30T03:52:54.340Z,43.82
2023-05-30T03:55:23.727Z,43.78
2023-05-30T03:57:51.748Z,43.64
2023-05-30T04:00:19.827Z,43.82
2023-05-30T04:02:47.964Z,43.88
2023-05-30T04:05:15.945Z,43.92
2023-05-30T04:07:43.942Z,43.82
2023-05-30T04:10:12.286Z,43.90
2023-05-30T04:12:41.612Z,43.88
2023-05-30T04:15:10.209Z,43.79
2023-05-30T04:17:38.320Z,43.80
2023-05-30T04:20:10.039Z,43.88
2023-05-30T04:22:38.146Z,43.75
2023-05-30T04:25:09.971Z,43.69
2023-05-30T04:27:38.016Z,43.75
2023-05-30T04:30:11.319Z,43.82
2023-05-30T04:32:40.416Z,43.70
2023-05-30T04:35:11.446Z,43.62
2023-05-30T04:37:44.908Z,43.66
2023-05-30T04:40:13.655Z,43.64
2023-05-30T04:42:43.139Z,43.63
2023-05-30T04:45:16.176Z,43.68
2023-05-30T04:47:46.156Z,43.66
2023-05-30T04:50:15.482Z,43.62
2023-05-30T04:52:43.695Z,43.65
2023-05-30T04:55:13.408Z,43.49
2023-05-30T04:57:41.424Z,43.49
2023-05-30T05:00:15.600Z,43.54
2023-05-30T05:02:44.153Z,43.42
2023-05-30T05:05:12.358Z,43.58
2023-05-30T05:07:41.929Z,43.64
2023-05-30T05:10:11.535Z,43.50
2023-05-30T05:12:39.878Z,43.43
2023-05-30T05:15:09.099Z,43.69
2023-05-30T05:17:38.559Z,43.50
2023-05-30T05:20:12.101Z,43.51
2023-05-30T05:22:41.190Z,43.44
2023-05-30T05:25:11.006Z,43.58
2023-05-30T05:27:40.677Z,43.56
2023-05-30T05:30:11.638Z,43.37
2023-05-30T05:32:43.793Z,43.55
2023-05-30T05:35:12.062Z,43.49
2023-05-30T05:37:40.096Z,43.53
2023-05-30T05:40:10.207Z,43.44
2023-05-30T05:42:38.558Z,43.43
2023-05-30T05:45:07.665Z,43.37
2023-05-30T05:47:35.751Z,43.36
2023-05-30T05:50:05.833Z,43.46
2023-05-30T05:52:33.875Z,43.45
2023-05-30T05:55:01.869Z,43.34
2023-05-30T05:57:29.886Z,43.28
2023-05-30T06:00:00.654Z,43.21
2023-05-30T06:02:28.790Z,43.31
2023-05-30T06:04:56.794Z,43.22
2023-05-30T06:07:26.213Z,43.30
2023-05-30T06:09:54.207Z,43.24
2023-05-30T06:12:22.229Z,43.23
2023-05-30T06:14:50.313Z,43.13
2023-05-30T06:17:18.294Z,43.07
2023-05-30T06:19:46.403Z,43.30
2023-05-30T06:22:14.408Z,43.16
2023-05-30T06:24:43.752Z,43.21
2023-05-30T06:27:11.742Z,43.24
2023-05-30T06:29:39.764Z,43.10
2023-05-30T06:32:16.249Z,43.24
2023-05-30T06:34:46.968Z,43.21
2023-05-30T06:37:15.494Z,43.08
2023-05-30T06:39:44.858Z,43.15
2023-05-30T06:42:13.616Z,43.17
2023-05-30T06:44:42.054Z,43.19
2023-05-30T06:47:10.537Z,43.21
2023-05-30T06:49:38.622Z,43.28
2023-05-30T06:52:07.314Z,43.11
2023-05-30T06:54:35.417Z,43.17
2023-05-30T06:57:05.871Z,43.17
2023-05-30T06:59:34.987Z,43.01
2023-05-30T07:02:06.158Z,43.03
2023-05-30T07:04:34.294Z,43.02
2023-05-30T07:07:02.300Z,43.02
2023-05-30T07:09:30.300Z,42.94
2023-05-30T07:11:58.267Z,42.99
2023-05-30T07:14:27.607Z,43.19
2023-05-30T07:16:56.147Z,42.86
2023-05-30T07:19:25.603Z,42.92
2023-05-30T07:21:53.624Z,42.85
2023-05-30T07:24:22.748Z,42.69
2023-05-30T07:26:51.539Z,42.75
2023-05-30T07:29:19.870Z,42.76
2023-05-30T07:31:52.212Z,42.48
2023-05-30T07:34:20.203Z,42.70
2023-05-30T07:36:48.246Z,42.70
2023-05-30T07:39:18.968Z,42.75
2023-05-30T07:41:46.952Z,43.06
2023-05-30T07:44:15.376Z,43.09
2023-05-30T07:46:43.569Z,43.08
2023-05-30T07:49:13.028Z,43.34
2023-05-30T07:51:41.064Z,43.38
2023-05-30T07:54:12.104Z,43.50
2023-05-30T07:56:40.066Z,43.42
2023-05-30T07:59:08.153Z,43.74
2023-05-30T08:01:36.190Z,43.68
2023-05-30T08:04:04.520Z,43.67
2023-05-30T08:06:34.943Z,43.77
2023-05-30T08:09:03.074Z,43.68
2023-05-30T08:11:32.173Z,43.73
2023-05-30T08:14:00.170Z,43.78
2023-05-30T08:16:28.620Z,43.66
2023-05-30T08:18:58.899Z,43.74
2023-05-30T08:21:28.092Z,43.68
2023-05-30T08:23:59.619Z,43.90
2023-05-30T08:26:31.570Z,43.81
2023-05-30T08:28:59.859Z,43.67
2023-05-30T08:31:28.484Z,43.85
2023-05-30T08:33:56.580Z,43.77
2023-05-30T08:36:26.152Z,43.83
2023-05-30T08:39:13.075Z,43.82
2023-05-30T08:41:43.676Z,44.00
2023-05-30T08:44:11.724Z,43.96
2023-05-30T08:46:43.793Z,44.13
2023-05-30T08:49:18.062Z,44.23
2023-05-30T08:51:46.268Z,44.34
2023-05-30T08:54:19.743Z,44.61
2023-05-30T08:57:00.773Z,44.54
2023-05-30T08:59:30.143Z,44.38
2023-05-30T09:02:00.263Z,44.52
2023-05-30T09:04:28.863Z,44.48
2023-05-30T09:06:59.900Z,44.74
2023-05-30T09:09:28.915Z,44.39
2023-05-30T09:11:58.702Z,44.30
2023-05-30T09:14:26.949Z,44.25
2023-05-30T09:16:55.405Z,44.36
2023-05-30T09:19:23.840Z,44.42
2023-05-30T09:21:52.478Z,44.23
2023-05-30T09:24:20.494Z,44.27
2023-05-30T09:27:04.099Z,44.41
2023-05-30T09:29:43.801Z,44.71
2023-05-30T09:32:14.319Z,44.26
2023-05-30T09:34:42.675Z,44.52
2023-05-30T09:37:10.729Z,44.62
2023-05-30T09:39:38.704Z,44.79
2023-05-30T09:42:10.674Z,44.92
2023-05-30T09:44:44.140Z,45.10
2023-05-30T09:47:12.899Z,45.17
2023-05-30T09:49:42.551Z,45.00
2023-05-30T09:52:10.622Z,45.43
2023-05-30T09:54:38.918Z,45.11
2023-05-30T09:57:09.103Z,45.23
2023-05-30T09:59:37.303Z,44.78
2023-05-30T10:02:05.797Z,45.06
2023-05-30T10:04:33.834Z,45.13
2023-05-30T10:07:02.497Z,44.99
2023-05-30T10:09:30.963Z,45.32
2023-05-30T10:12:04.373Z,45.12
2023-05-30T10:14:34.296Z,44.48
2023-05-30T10:17:06.128Z,44.08
2023-05-30T10:19:50.867Z,44.50
2023-05-30T10:22:22.249Z,44.91
2023-05-30T10:24:53.719Z,45.03
2023-05-30T10:27:29.431Z,44.95
2023-05-30T10:30:06.255Z,44.86
2023-05-30T10:32:36.404Z,44.93
2023-05-30T10:35:12.314Z,45.04
2023-05-30T10:37:41.346Z,45.33
2023-05-30T10:40:33.432Z,45.33
2023-05-30T10:43:12.459Z,45.44
2023-05-30T10:45:53.105Z,45.54
2023-05-30T10:48:28.492Z,45.62
2023-05-30T10:51:01.089Z,45.73
2023-05-30T10:53:29.929Z,45.70
2023-05-30T10:55:58.057Z,45.53
2023-05-30T10:58:39.719Z,45.58
2023-05-30T11:01:28.544Z,45.24
2023-05-30T11:04:05.329Z,45.37
2023-05-30T11:06:35.776Z,45.31
2023-05-30T11:09:09.196Z,45.69
2023-05-30T11:11:40.724Z,45.75
2023-05-30T11:14:10.092Z,45.71
2023-05-30T11:16:51.435Z,45.58
2023-05-30T11:19:22.156Z,45.03
2023-05-30T11:21:57.759Z,44.16
2023-05-30T11:24:26.220Z,44.37
2023-05-30T11:26:55.086Z,43.60
2023-05-30T11:29:34.145Z,43.36
2023-05-30T11:32:06.511Z,42.93
2023-05-30T11:34:34.858Z,42.92
2023-05-30T11:37:03.481Z,42.86
2023-05-30T11:39:34.875Z,42.87
2023-05-30T11:42:03.858Z,43.03
2023-05-30T11:44:32.573Z,43.02
2023-05-30T11:47:01.995Z,43.21
2023-05-30T11:49:32.145Z,43.16
2023-05-30T11:52:00.412Z,43.92
2023-05-30T11:54:29.298Z,43.90
2023-05-30T11:56:58.437Z,44.26
2023-05-30T11:59:28.646Z,44.14
2023-05-30T12:01:58.796Z,44.38
2023-05-30T12:04:28.358Z,44.08
2023-05-30T12:07:01.980Z,42.60
2023-05-30T12:09:30.751Z,42.76
2023-05-30T12:12:00.421Z,42.80
2023-05-30T12:14:38.946Z,43.49
2023-05-30T12:17:12.458Z,43.47
2023-05-30T12:19:42.186Z,43.31
2023-05-30T12:22:12.323Z,43.43
2023-05-30T12:24:41.085Z,43.51
2023-05-30T12:27:18.541Z,44.09
2023-05-30T12:29:46.698Z,43.24
2023-05-30T12:32:14.770Z,42.85
2023-05-30T12:34:44.955Z,42.57
2023-05-30T12:37:15.536Z,42.60
2023-05-30T12:39:52.312Z,43.03
2023-05-30T12:42:24.003Z,42.79
2023-05-30T12:44:54.140Z,42.78
2023-05-30T12:47:22.642Z,42.67
2023-05-30T12:49:50.899Z,42.76
2023-05-30T12:52:21.836Z,43.65
2023-05-30T12:54:51.123Z,43.30
2023-05-30T12:57:25.593Z,43.38
2023-05-30T12:59:56.924Z,43.73
2023-05-30T13:02:26.485Z,44.78
2023-05-30T13:04:55.384Z,45.18
2023-05-30T13:07:24.842Z,45.13
2023-05-30T13:09:53.284Z,45.40
2023-05-30T13:12:21.411Z,46.03
2023-05-30T13:14:49.451Z,46.03
2023-05-30T13:17:17.546Z,46.33
2023-05-30T13:19:45.847Z,46.24
2023-05-30T13:22:14.535Z,46.54
2023-05-30T13:24:44.126Z,46.34
2023-05-30T13:27:15.120Z,46.35
2023-05-30T13:29:47.398Z,46.47
2023-05-30T13:32:15.650Z,46.42
2023-05-30T13:34:43.723Z,46.58
2023-05-30T13:37:11.724Z,46.80
2023-05-30T13:39:46.708Z,47.26
2023-05-30T13:42:16.583Z,47.08
2023-05-30T13:44:47.319Z,46.90
2023-05-30T13:47:15.321Z,47.46
2023-05-30T13:49:43.372Z,47.45
2023-05-30T13:52:11.365Z,47.34
2023-05-30T13:54:41.418Z,47.45
2023-05-30T13:57:10.970Z,47.58
2023-05-30T13:59:39.005Z,47.61
2023-05-30T14:02:09.021Z,47.51
2023-05-30T14:04:37.138Z,47.86
2023-05-30T14:07:08.234Z,47.67
2023-05-30T14:09:36.234Z,47.44
2023-05-30T14:12:04.670Z,47.40
2023-05-30T14:14:34.201Z,47.27
2023-05-30T14:17:04.335Z,47.11
2023-05-30T14:19:32.800Z,47.09
2023-05-30T14:22:00.784Z,46.98
2023-05-30T14:24:28.781Z,46.94
2023-05-30T14:26:56.783Z,46.59
2023-05-30T14:29:24.916Z,46.54
2023-05-30T14:31:54.562Z,46.24
2023-05-30T14:34:22.688Z,46.36
2023-05-30T14:36:50.695Z,46.34
2023-05-30T14:39:20.094Z,46.29
2023-05-30T14:41:48.275Z,46.94
2023-05-30T14:44:16.291Z,46.81
2023-05-30T14:46:44.262Z,47.09
2023-05-30T14:49:16.459Z,46.55
2023-05-30T14:51:44.496Z,46.37
2023-05-30T14:54:12.847Z,46.32
2023-05-30T14:56:42.223Z,46.40
2023-05-30T14:59:10.428Z,46.21
2023-05-30T15:01:46.427Z,46.29
2023-05-30T15:04:18.995Z,46.09
2023-05-30T15:06:47.367Z,46.06
2023-05-30T15:09:15.414Z,46.02
2023-05-30T15:11:43.614Z,45.98
2023-05-30T15:14:11.588Z,46.04
2023-05-30T15:16:42.740Z,46.02
2023-05-30T15:19:10.842Z,45.96
2023-05-30T15:21:40.212Z,45.82
2023-05-30T15:24:09.529Z,45.81
2023-05-30T15:26:37.504Z,45.88
2023-05-30T15:29:05.638Z,45.73
2023-05-30T15:31:33.924Z,45.72
2023-05-30T15:34:03.709Z,45.74
2023-05-30T15:36:32.981Z,45.69
2023-05-30T15:39:02.352Z,45.95
2023-05-30T15:41:30.400Z,46.11
2023-05-30T15:44:02.581Z,46.23
2023-05-30T15:46:30.832Z,46.39
2023-05-30T15:48:58.999Z,46.18
2023-05-30T15:51:27.081Z,46.26
2023-05-30T15:53:55.156Z,46.37
2023-05-30T15:56:24.511Z,46.42
2023-05-30T15:58:52.522Z,46.71
2023-05-30T16:01:20.700Z,46.67
2023-05-30T16:03:50.210Z,46.98
2023-05-30T16:06:20.422Z,45.67
2023-05-30T16:08:48.481Z,46.07
2023-05-30T16:11:16.490Z,46.60
2023-05-30T16:13:45.850Z,46.83
2023-05-30T16:16:15.450Z,46.87
2023-05-30T16:18:43.491Z,47.11
2023-05-30T16:21:11.619Z,47.47
2023-05-30T16:23:39.631Z,47.38
2023-05-30T16:26:09.669Z,47.47
2023-05-30T16:28:37.684Z,47.71
2023-05-30T16:31:07.218Z,47.46
2023-05-30T16:33:36.422Z,47.21
2023-05-30T16:36:07.839Z,47.21
2023-05-30T16:38:38.713Z,47.18
2023-05-30T16:43:38.276Z,47.00
2023-05-30T16:46:09.608Z,47.07
2023-05-30T16:48:37.967Z,46.98
2023-05-30T16:51:06.459Z,46.99
2023-05-30T16:53:37.807Z,47.04
2023-05-30T16:56:14.391Z,46.94
2023-05-30T16:58:45.069Z,46.94
2023-05-30T17:01:14.809Z,46.84
2023-05-30T17:03:43.545Z,46.82
2023-05-30T17:06:12.589Z,46.75
2023-05-30T17:08:42.448Z,46.74
2023-05-30T17:11:12.059Z,46.69
2023-05-30T17:13:40.734Z,46.82
2023-05-30T17:16:09.187Z,46.97
2023-05-30T17:18:38.940Z,46.91
2023-05-30T17:21:07.050Z,46.75
2023-05-30T17:23:35.188Z,46.80
2023-05-30T17:26:03.788Z,46.77
2023-05-30T17:28:35.379Z,46.84
2023-05-30T17:31:03.732Z,47.00
2023-05-30T17:33:32.022Z,46.89
2023-05-30T17:36:01.473Z,46.87
2023-05-30T17:38:29.582Z,46.98
2023-05-30T17:40:57.596Z,46.83
2023-05-30T17:43:25.590Z,47.03
2023-05-30T17:45:54.009Z,47.13
2023-05-30T17:48:22.530Z,47.05
2023-05-30T17:50:51.222Z,47.11
2023-05-30T17:53:20.832Z,47.29
2023-05-30T17:55:49.437Z,47.01
2023-05-30T17:58:18.781Z,46.91
2023-05-30T18:00:47.977Z,45.67
2023-05-30T18:03:18.710Z,46.42
2023-05-30T18:05:46.777Z,46.59
2023-05-30T18:08:18.538Z,46.94
2023-05-30T18:10:48.214Z,46.96
2023-05-30T18:13:16.481Z,46.87
2023-05-30T18:15:47.423Z,46.81
2023-05-30T18:18:16.247Z,46.99
2023-05-30T18:20:44.549Z,46.92
2023-05-30T18:23:12.989Z,46.89
2023-05-30T18:25:41.233Z,46.99
2023-05-30T18:28:11.174Z,46.99
2023-05-30T18:30:40.788Z,47.06
2023-05-30T18:33:11.933Z,47.11
2023-05-30T18:35:39.972Z,47.22
2023-05-30T18:38:07.985Z,47.28
2023-05-30T18:40:36.153Z,47.43
2023-05-30T18:43:07.116Z,47.48
2023-05-30T18:45:36.548Z,47.34
2023-05-30T18:48:07.585Z,47.40
2023-05-30T18:50:35.741Z,47.55
2023-05-30T18:53:03.703Z,47.52
2023-05-30T18:55:31.654Z,47.72
2023-05-30T18:57:59.658Z,47.63
2023-05-30T19:00:27.701Z,47.63
2023-05-30T19:02:58.154Z,47.74
2023-05-30T19:05:26.352Z,47.93
2023-05-30T19:07:56.755Z,47.88
2023-05-30T19:10:24.947Z,48.10
2023-05-30T19:12:54.327Z,48.12
2023-05-30T19:15:22.434Z,48.04
2023-05-30T19:17:50.385Z,48.21
2023-05-30T19:20:19.829Z,48.05
2023-05-30T19:22:47.940Z,48.12
2023-05-30T19:25:15.968Z,48.31
2023-05-30T19:27:43.979Z,48.33
2023-05-30T19:30:12.307Z,48.30
2023-05-30T19:32:40.393Z,48.32
2023-05-30T19:35:11.067Z,48.37
2023-05-30T19:37:40.642Z,48.37
2023-05-30T19:40:09.883Z,48.39
2023-05-30T19:42:37.873Z,48.28
2023-05-30T19:45:09.970Z,48.37
2023-05-30T19:47:37.984Z,48.31
2023-05-30T19:50:06.930Z,48.59
2023-05-30T19:52:35.109Z,48.41
2023-05-30T19:55:05.139Z,48.26
2023-05-30T19:57:33.156Z,48.60
2023-05-30T20:00:01.332Z,48.62
2023-05-30T20:02:29.401Z,48.58
2023-05-30T20:04:57.433Z,48.62
2023-05-30T20:07:25.683Z,48.69
2023-05-30T20:09:53.651Z,48.62
2023-05-30T20:12:23.006Z,48.79
2023-05-30T20:14:51.543Z,48.67
2023-05-30T20:17:19.611Z,48.68
2023-05-30T20:19:52.065Z,48.79
2023-05-30T20:22:20.165Z,48.83
2023-05-30T20:24:48.172Z,48.81
2023-05-30T20:27:20.962Z,48.82
2023-05-30T20:29:50.756Z,48.19
2023-05-30T20:32:18.716Z,48.66
2023-05-30T20:34:47.633Z,48.82
2023-05-30T20:37:15.739Z,48.93
2023-05-30T20:39:43.728Z,48.80
2023-05-30T20:42:11.811Z,48.67
2023-05-30T20:44:40.071Z,48.98
2023-05-30T20:47:12.268Z,48.72
2023-05-30T20:49:41.031Z,48.77
2023-05-30T20:52:11.463Z,48.70
2023-05-30T20:54:39.529Z,48.81
2023-05-30T20:57:17.003Z,48.81
2023-05-30T20:59:45.159Z,48.73
2023-05-30T21:02:14.672Z,48.52
2023-05-30T21:04:43.016Z,48.67
2023-05-30T21:07:11.320Z,48.47
2023-05-30T21:09:42.524Z,48.76
2023-05-30T21:12:11.806Z,48.65
2023-05-30T21:14:40.410Z,48.54
2023-05-30T21:17:12.872Z,48.67
2023-05-30T21:19:42.267Z,48.71
2023-05-30T21:22:10.226Z,48.77
2023-05-30T21:24:38.385Z,48.51
2023-05-30T21:27:07.272Z,48.68
2023-05-30T21:29:35.245Z,48.83
2023-05-30T21:32:06.783Z,48.68
2023-05-30T21:34:34.767Z,48.62
2023-05-30T21:37:04.214Z,49.15
2023-05-30T21:39:32.218Z,48.86
2023-05-30T21:42:00.174Z,48.82
2023-05-30T21:44:28.165Z,48.85
2023-05-30T21:46:59.192Z,48.68
2023-05-30T21:49:27.209Z,48.62
2023-05-30T21:51:55.201Z,48.61
2023-05-30T21:54:38.784Z,48.74
2023-05-30T21:57:08.717Z,48.69
2023-05-30T21:59:37.807Z,48.51
2023-05-30T22:02:10.441Z,48.57
2023-05-30T22:04:38.455Z,48.51
2023-05-30T22:07:08.525Z,48.67
2023-05-30T22:09:38.244Z,48.57
2023-05-30T22:12:07.581Z,48.27
2023-05-30T22:14:35.951Z,48.41
2023-05-30T22:17:04.027Z,48.52
2023-05-30T22:19:31.987Z,48.48
2023-05-30T22:22:04.547Z,48.42
2023-05-30T22:24:33.698Z,48.57
2023-05-30T22:27:03.202Z,48.43
2023-05-30T22:29:31.257Z,48.31
2023-05-30T22:31:59.462Z,48.29
2023-05-30T22:34:27.467Z,48.35
2023-05-30T22:36:55.510Z,48.24
2023-05-30T22:39:23.580Z,48.42
2023-05-30T22:41:51.579Z,48.50
2023-05-30T22:44:21.027Z,48.33
2023-05-30T22:46:49.024Z,48.31
2023-05-30T22:49:17.048Z,48.24
2023-05-30T22:51:47.982Z,48.18
2023-05-30T22:54:16.012Z,48.24
2023-05-30T22:56:43.980Z,48.22
2023-05-30T22:59:12.057Z,48.06
2023-05-30T23:01:41.466Z,48.26
2023-05-30T23:04:09.732Z,48.15
2023-05-30T23:06:37.772Z,48.27
2023-05-30T23:09:06.710Z,48.10
2023-05-30T23:11:35.653Z,48.17
2023-05-30T23:14:03.671Z,48.21
2023-05-30T23:16:31.669Z,48.17
2023-05-30T23:19:01.138Z,48.15
2023-05-30T23:21:29.105Z,48.25
2023-05-30T23:23:57.071Z,48.04
2023-05-30T23:26:25.112Z,47.95
2023-05-30T23:28:53.156Z,48.15
2023-05-30T23:31:21.219Z,47.98
2023-05-30T23:33:49.204Z,48.18
2023-05-30T23:36:21.033Z,48.11
2023-05-30T23:38:49.055Z,47.93
2023-05-30T23:41:18.668Z,48.04
2023-05-30T23:43:46.749Z,48.05
2023-05-30T23:46:14.964Z,48.10
2023-05-30T23:48:43.664Z,48.02
2023-05-30T23:51:17.620Z,48.04
2023-05-30T23:53:47.108Z,47.99
2023-05-30T23:56:15.255Z,48.04
2023-05-30T23:58:43.242Z,48.02
